createdAt,value
2023-02-17T00:00:57.278Z,18.88
2023-02-17T00:03:24.502Z,20.02
2023-02-17T00:05:51.741Z,19.58
2023-02-17T00:08:18.990Z,19.55
2023-02-17T00:10:46.001Z,20.17
2023-02-17T00:13:12.971Z,19.70
2023-02-17T00:15:40.080Z,19.58
2023-02-17T00:18:07.123Z,20.55
2023-02-17T00:20:34.078Z,20.52
2023-02-17T00:23:01.076Z,20.33
2023-02-17T00:25:28.145Z,20.35
2023-02-17T00:27:55.123Z,20.58
2023-02-17T00:30:22.113Z,21.40
2023-02-17T00:32:49.514Z,20.33
2023-02-17T00:35:16.698Z,20.50
2023-02-17T00:37:45.712Z,20.13
2023-02-17T00:40:13.873Z,20.48
2023-02-17T00:42:41.136Z,20.58
2023-02-17T00:45:09.005Z,20.98
2023-02-17T00:47:36.099Z,21.80
2023-02-17T00:50:03.076Z,21.10
2023-02-17T00:52:30.059Z,21.58
2023-02-17T00:54:57.037Z,22.83
2023-02-17T00:57:24.877Z,21.17
2023-02-17T00:59:51.871Z,21.38
2023-02-17T01:02:18.932Z,21.77
2023-02-17T01:04:45.928Z,23.38
2023-02-17T01:07:12.915Z,21.40
2023-02-17T01:09:39.909Z,21.33
2023-02-17T01:12:06.863Z,22.40
2023-02-17T01:14:33.872Z,20.92
2023-02-17T01:17:00.829Z,22.33
2023-02-17T01:19:27.819Z,22.13
2023-02-17T01:21:54.802Z,21.25
2023-02-17T01:24:21.783Z,21.58
2023-02-17T01:26:48.783Z,21.33
2023-02-17T01:29:15.806Z,21.80
2023-02-17T01:31:42.915Z,22.45
2023-02-17T01:34:11.293Z,22.35
2023-02-17T01:36:38.677Z,21.58
2023-02-17T01:39:05.649Z,22.02
2023-02-17T01:41:32.733Z,21.23
2023-02-17T01:44:16.945Z,25.77
2023-02-17T01:46:50.131Z,23.10
2023-02-17T01:49:36.830Z,22.70
2023-02-17T01:52:24.563Z,23.50
2023-02-17T01:55:03.794Z,23.05
2023-02-17T01:57:33.165Z,24.70
2023-02-17T02:00:00.738Z,23.08
2023-02-17T02:02:31.144Z,22.58
2023-02-17T02:04:58.515Z,25.48
2023-02-17T02:07:33.968Z,24.92
2023-02-17T02:10:01.488Z,24.10
2023-02-17T02:12:34.227Z,26.80
2023-02-17T02:15:09.339Z,25.45
2023-02-17T02:17:57.743Z,25.55
2023-02-17T02:21:11.876Z,23.75
2023-02-17T02:23:56.816Z,24.02
2023-02-17T02:26:50.988Z,24.33
2023-02-17T02:29:38.220Z,27.50
2023-02-17T02:32:47.534Z,23.67
2023-02-17T02:35:43.807Z,28.33
2023-02-17T02:38:16.826Z,25.45
2023-02-17T02:40:49.988Z,24.75
2023-02-17T02:43:17.529Z,24.10
2023-02-17T02:45:44.663Z,24.38
2023-02-17T02:48:11.768Z,23.17
2023-02-17T02:50:44.853Z,24.45
2023-02-17T02:53:30.421Z,23.85
2023-02-17T02:56:00.368Z,25.80
2023-02-17T02:59:00.520Z,24.58
2023-02-17T03:01:42.009Z,24.58
2023-02-17T03:04:38.224Z,24.20
2023-02-17T03:07:08.639Z,24.42
2023-02-17T03:09:36.409Z,23.92
2023-02-17T03:12:04.162Z,26.30
2023-02-17T03:14:37.520Z,24.52
2023-02-17T03:17:05.326Z,24.02
2023-02-17T03:19:32.746Z,23.20
2023-02-17T03:22:16.739Z,23.30
2023-02-17T03:24:43.725Z,22.98
2023-02-17T03:27:10.840Z,22.80
2023-02-17T03:29:38.420Z,22.70
2023-02-17T03:32:05.772Z,22.90
2023-02-17T03:34:32.874Z,21.38
2023-02-17T03:36:59.997Z,22.83
2023-02-17T03:39:27.776Z,23.77
2023-02-17T03:41:54.928Z,22.27
2023-02-17T03:44:21.882Z,22.58
2023-02-17T03:46:48.856Z,22.33
2023-02-17T03:49:15.902Z,24.55
2023-02-17T03:51:42.894Z,21.60
2023-02-17T03:54:10.015Z,21.48
2023-02-17T03:56:37.319Z,22.20
2023-02-17T03:59:04.706Z,21.25
2023-02-17T04:01:31.708Z,22.45
2023-02-17T04:03:58.728Z,23.35
2023-02-17T04:06:25.798Z,21.75
2023-02-17T04:08:52.869Z,23.92
2023-02-17T04:11:20.016Z,22.92
2023-02-17T04:13:47.038Z,22.00
2023-02-17T04:16:14.142Z,21.88
2023-02-17T04:18:41.193Z,24.13
2023-02-17T04:21:08.989Z,24.27
2023-02-17T04:23:38.954Z,21.17
2023-02-17T04:26:08.012Z,23.77
2023-02-17T04:28:39.393Z,21.38
2023-02-17T04:31:06.555Z,20.90
2023-02-17T04:33:34.360Z,21.52
2023-02-17T04:36:01.772Z,23.02
2023-02-17T04:38:30.821Z,21.63
2023-02-17T04:40:59.288Z,22.05
2023-02-17T04:43:28.309Z,22.52
2023-02-17T04:45:56.133Z,23.05
2023-02-17T04:48:23.744Z,22.58
2023-02-17T04:50:51.021Z,22.48
2023-02-17T04:53:19.973Z,23.40
2023-02-17T04:55:52.394Z,23.20
2023-02-17T04:58:20.225Z,22.23
2023-02-17T05:00:48.546Z,23.88
2023-02-17T05:03:15.793Z,21.63
2023-02-17T05:05:42.757Z,22.50
2023-02-17T05:08:09.774Z,21.70
2023-02-17T05:10:36.706Z,24.50
2023-02-17T05:13:03.707Z,24.33
2023-02-17T05:15:32.530Z,21.50
2023-02-17T05:18:00.709Z,22.67
2023-02-17T05:20:27.998Z,21.98
2023-02-17T05:22:55.112Z,25.67
2023-02-17T05:25:22.149Z,26.45
2023-02-17T05:27:49.216Z,34.28
2023-02-17T05:30:16.346Z,58.70
2023-02-17T05:32:43.409Z,51.08
2023-02-17T05:35:10.608Z,34.80
2023-02-17T05:37:37.742Z,33.40
2023-02-17T05:40:05.329Z,36.15
2023-02-17T05:42:32.283Z,30.73
2023-02-17T05:44:59.242Z,22.23
2023-02-17T05:47:27.638Z,23.17
2023-02-17T05:49:54.833Z,20.90
2023-02-17T05:52:21.843Z,21.35
2023-02-17T05:54:48.809Z,21.35
2023-02-17T05:57:15.836Z,21.20
2023-02-17T05:59:42.867Z,21.50
2023-02-17T06:02:10.011Z,20.27
2023-02-17T06:04:37.268Z,24.17
2023-02-17T06:07:04.400Z,22.08
2023-02-17T06:09:31.665Z,20.33
2023-02-17T06:11:58.649Z,20.40
2023-02-17T06:14:25.651Z,21.17
2023-02-17T06:16:53.862Z,20.25
2023-02-17T06:19:20.792Z,21.75
2023-02-17T06:21:47.762Z,18.55
2023-02-17T06:24:14.697Z,20.58
2023-02-17T06:26:41.742Z,19.02
2023-02-17T06:29:08.686Z,21.40
2023-02-17T06:31:35.813Z,20.45
2023-02-17T06:34:05.428Z,19.67
2023-02-17T06:36:33.534Z,20.55
2023-02-17T06:39:00.586Z,23.50
2023-02-17T06:41:27.618Z,20.23
2023-02-17T06:43:54.593Z,22.35
2023-02-17T06:46:21.634Z,21.05
2023-02-17T06:48:48.785Z,21.35
2023-02-17T06:51:15.899Z,24.77
2023-02-17T06:53:42.889Z,21.65
2023-02-17T06:56:09.900Z,21.60
2023-02-17T06:58:37.751Z,20.17
2023-02-17T07:01:05.903Z,19.55
2023-02-17T07:03:33.194Z,19.30
2023-02-17T07:06:00.511Z,19.42
2023-02-17T07:08:27.510Z,21.15
2023-02-17T07:10:54.478Z,19.00
2023-02-17T07:13:21.432Z,18.98
2023-02-17T07:15:48.420Z,20.38
2023-02-17T07:18:15.382Z,18.50
2023-02-17T07:20:42.538Z,18.00
2023-02-17T07:23:09.484Z,18.30
2023-02-17T07:25:36.429Z,18.50
2023-02-17T07:28:03.473Z,17.92
2023-02-17T07:30:30.517Z,18.15
2023-02-17T07:32:57.603Z,18.00
2023-02-17T07:35:24.652Z,17.90
2023-02-17T07:37:51.852Z,19.85
2023-02-17T07:40:19.219Z,17.63
2023-02-17T07:42:46.145Z,27.50
2023-02-17T07:45:13.150Z,18.27
2023-02-17T07:47:40.117Z,17.58
2023-02-17T07:50:08.417Z,17.67
2023-02-17T07:52:35.712Z,16.80
2023-02-17T07:55:02.988Z,17.45
2023-02-17T07:57:30.844Z,17.85
2023-02-17T07:59:57.795Z,18.17
2023-02-17T08:02:24.775Z,18.73
2023-02-17T08:04:52.787Z,18.85
2023-02-17T08:07:20.079Z,17.70
2023-02-17T08:10:05.477Z,18.70
2023-02-17T08:12:51.119Z,16.92
2023-02-17T08:15:18.101Z,16.95
2023-02-17T08:17:45.137Z,17.23
2023-02-17T08:20:13.674Z,18.08
2023-02-17T08:22:40.726Z,17.38
2023-02-17T08:25:07.924Z,16.58
2023-02-17T08:27:34.910Z,16.83
2023-02-17T08:30:01.983Z,16.25
2023-02-17T08:32:28.998Z,16.70
2023-02-17T08:34:57.090Z,17.20
2023-02-17T08:37:24.160Z,17.20
2023-02-17T08:39:51.224Z,16.67
2023-02-17T08:42:18.211Z,16.92
2023-02-17T08:44:45.421Z,16.83
2023-02-17T08:47:12.407Z,17.60
2023-02-17T08:49:40.503Z,18.58
2023-02-17T08:52:07.626Z,18.45
2023-02-17T08:54:34.617Z,19.23
2023-02-17T08:57:01.666Z,19.27
2023-02-17T08:59:28.750Z,21.75
2023-02-17T09:01:55.944Z,18.00
2023-02-17T09:04:23.173Z,17.70
2023-02-17T09:06:52.847Z,17.20
2023-02-17T09:09:22.737Z,16.50
2023-02-17T09:11:50.172Z,16.77
2023-02-17T09:14:17.268Z,16.92
2023-02-17T09:16:44.348Z,16.65
2023-02-17T09:19:11.434Z,16.33
2023-02-17T09:21:38.440Z,16.88
2023-02-17T09:24:05.866Z,16.05
2023-02-17T09:26:35.191Z,15.93
2023-02-17T09:29:03.988Z,16.75
2023-02-17T09:31:32.086Z,16.10
2023-02-17T09:33:59.563Z,15.85
2023-02-17T09:36:29.388Z,15.73
2023-02-17T09:38:56.934Z,15.68
2023-02-17T09:41:30.107Z,14.70
2023-02-17T09:43:57.130Z,15.68
2023-02-17T09:46:28.775Z,14.93
2023-02-17T09:49:00.785Z,14.35
2023-02-17T09:51:42.847Z,14.43
2023-02-17T09:54:16.710Z,14.48
2023-02-17T09:56:48.519Z,14.48
2023-02-17T09:59:20.996Z,15.00
2023-02-17T10:01:50.787Z,15.63
2023-02-17T10:04:24.123Z,14.43
2023-02-17T10:07:02.398Z,15.45
2023-02-17T10:09:33.557Z,15.38
2023-02-17T10:12:10.670Z,16.25
2023-02-17T10:14:40.575Z,15.20
2023-02-17T10:17:32.328Z,15.15
2023-02-17T10:20:10.897Z,15.85
2023-02-17T10:22:40.046Z,15.40
2023-02-17T10:25:25.200Z,15.20
2023-02-17T10:28:19.555Z,15.55
2023-02-17T10:30:58.552Z,15.40
2023-02-17T10:33:55.264Z,15.68
2023-02-17T10:36:43.318Z,14.98
2023-02-17T10:39:14.908Z,14.77
2023-02-17T10:41:45.896Z,15.07
2023-02-17T10:44:18.455Z,16.23
2023-02-17T10:46:45.852Z,16.27
2023-02-17T10:49:26.191Z,15.45
2023-02-17T10:51:53.207Z,15.00
2023-02-17T10:54:37.631Z,15.18
2023-02-17T10:57:08.757Z,15.07
2023-02-17T10:59:43.248Z,14.90
2023-02-17T11:02:25.228Z,16.10
2023-02-17T11:04:56.255Z,16.30
2023-02-17T11:07:32.641Z,15.30
2023-02-17T11:10:03.153Z,15.18
2023-02-17T11:12:40.543Z,14.98
2023-02-17T11:15:22.269Z,15.38
2023-02-17T11:17:49.681Z,15.30
2023-02-17T11:20:16.852Z,16.52
2023-02-17T11:23:00.248Z,14.98
2023-02-17T11:25:30.350Z,15.20
2023-02-17T11:27:59.852Z,14.57
2023-02-17T11:30:29.475Z,15.43
2023-02-17T11:32:56.874Z,15.50
2023-02-17T11:35:26.857Z,14.88
2023-02-17T11:38:01.760Z,14.95
2023-02-17T11:40:31.449Z,16.65
2023-02-17T11:43:00.495Z,15.98
2023-02-17T11:45:42.542Z,16.23
2023-02-17T11:48:35.386Z,17.17
2023-02-17T11:51:29.710Z,14.93
2023-02-17T11:54:08.700Z,14.43
2023-02-17T11:56:39.492Z,14.73
2023-02-17T11:59:26.760Z,14.00
2023-02-17T12:02:02.344Z,14.27
2023-02-17T12:04:34.305Z,14.88
2023-02-17T12:07:17.849Z,15.05
2023-02-17T12:09:47.863Z,15.05
2023-02-17T12:12:37.223Z,15.27
2023-02-17T12:15:19.127Z,15.13
2023-02-17T12:17:55.321Z,15.77
2023-02-17T12:20:47.604Z,16.02
2023-02-17T12:23:14.650Z,16.77
2023-02-17T12:26:10.882Z,16.23
2023-02-17T12:28:43.498Z,16.30
2023-02-17T12:31:19.644Z,17.52
2023-02-17T12:33:55.797Z,19.30
2023-02-17T12:36:29.183Z,18.55
2023-02-17T12:39:04.266Z,19.30
2023-02-17T12:41:48.666Z,22.05
2023-02-17T12:44:26.785Z,17.23
2023-02-17T12:46:57.634Z,16.38
2023-02-17T12:49:34.336Z,16.77
2023-02-17T12:52:06.258Z,16.17
2023-02-17T12:54:45.356Z,15.95
2023-02-17T12:57:24.215Z,14.52
2023-02-17T12:59:53.566Z,14.63
2023-02-17T13:02:24.730Z,16.27
2023-02-17T13:04:54.779Z,15.95
2023-02-17T13:07:36.701Z,15.45
2023-02-17T13:10:05.286Z,15.73
2023-02-17T13:12:36.053Z,14.82
2023-02-17T13:15:26.347Z,15.40
2023-02-17T13:18:30.313Z,16.10
2023-02-17T13:21:15.206Z,15.75
2023-02-17T13:23:44.914Z,15.15
2023-02-17T13:26:16.868Z,15.88
2023-02-17T13:28:44.898Z,15.60
2023-02-17T13:31:24.643Z,16.30
2023-02-17T13:33:57.128Z,15.57
2023-02-17T13:36:33.243Z,15.90
2023-02-17T13:39:23.210Z,15.73
2023-02-17T13:41:50.209Z,15.93
2023-02-17T13:44:40.956Z,15.65
2023-02-17T13:47:18.201Z,15.52
2023-02-17T13:49:53.496Z,15.57
2023-02-17T13:52:25.375Z,14.75
2023-02-17T13:54:57.631Z,15.77
2023-02-17T13:57:33.331Z,14.95
2023-02-17T14:00:29.288Z,16.13
2023-02-17T14:03:02.590Z,14.63
2023-02-17T14:05:33.392Z,14.83
2023-02-17T14:08:06.060Z,15.45
2023-02-17T14:10:33.476Z,16.05
2023-02-17T14:13:00.576Z,15.30
2023-02-17T14:15:29.747Z,15.95
2023-02-17T14:17:56.860Z,15.90
2023-02-17T14:20:35.198Z,16.95
2023-02-17T14:23:14.199Z,16.15
2023-02-17T14:25:46.680Z,15.90
2023-02-17T14:28:22.613Z,16.00
2023-02-17T14:30:50.162Z,16.20
2023-02-17T14:33:17.251Z,15.32
2023-02-17T14:35:56.279Z,16.60
2023-02-17T14:38:32.449Z,16.25
2023-02-17T14:41:01.213Z,16.15
2023-02-17T14:43:28.521Z,15.93
2023-02-17T14:45:55.545Z,15.95
2023-02-17T14:48:23.210Z,16.02
2023-02-17T14:50:50.289Z,15.65
2023-02-17T14:53:30.041Z,15.68
2023-02-17T14:55:56.953Z,17.08
2023-02-17T14:58:26.254Z,16.85
2023-02-17T15:00:53.251Z,15.48
2023-02-17T15:03:20.369Z,15.57
2023-02-17T15:05:47.677Z,14.60
2023-02-17T15:08:20.812Z,15.65
2023-02-17T15:10:48.399Z,15.25
2023-02-17T15:13:21.249Z,15.23
2023-02-17T15:15:49.782Z,16.00
2023-02-17T15:18:19.410Z,16.17
2023-02-17T15:20:50.313Z,17.13
2023-02-17T15:23:19.912Z,16.95
2023-02-17T15:25:47.963Z,16.60
2023-02-17T15:28:17.074Z,16.05
2023-02-17T15:30:49.143Z,14.95
2023-02-17T15:33:16.186Z,15.80
2023-02-17T15:35:43.495Z,16.08
2023-02-17T15:38:13.410Z,15.77
2023-02-17T15:40:41.501Z,15.38
2023-02-17T15:43:19.543Z,15.48
2023-02-17T15:45:47.149Z,15.35
2023-02-17T15:48:26.424Z,15.88
2023-02-17T15:50:54.407Z,16.00
2023-02-17T15:53:21.914Z,15.20
2023-02-17T15:55:49.265Z,15.20
2023-02-17T15:58:20.015Z,15.23
2023-02-17T16:00:50.370Z,14.90
2023-02-17T16:03:18.122Z,15.05
2023-02-17T16:05:45.289Z,15.70
2023-02-17T16:08:12.437Z,15.32
2023-02-17T16:10:42.604Z,15.30
2023-02-17T16:13:14.613Z,15.10
2023-02-17T16:15:42.809Z,14.55
2023-02-17T16:18:21.458Z,15.45
2023-02-17T16:20:48.716Z,15.88
2023-02-17T16:23:15.869Z,15.02
2023-02-17T16:25:45.179Z,15.80
2023-02-17T16:28:19.583Z,16.30
2023-02-17T16:30:49.524Z,16.35
2023-02-17T16:33:17.902Z,16.20
2023-02-17T16:35:45.368Z,16.60
2023-02-17T16:38:17.331Z,16.25
2023-02-17T16:40:47.988Z,16.17
2023-02-17T16:43:20.659Z,16.42
2023-02-17T16:45:57.283Z,16.35
2023-02-17T16:48:26.516Z,17.60
2023-02-17T16:50:53.581Z,16.73
2023-02-17T16:53:20.727Z,16.38
2023-02-17T16:55:48.393Z,16.38
2023-02-17T16:58:23.809Z,16.77
2023-02-17T17:00:53.110Z,16.50
2023-02-17T17:03:24.536Z,16.58
2023-02-17T17:05:52.723Z,16.05
2023-02-17T17:08:22.481Z,16.98
2023-02-17T17:10:49.891Z,16.17
2023-02-17T17:13:17.002Z,16.30
2023-02-17T17:15:45.875Z,16.15
2023-02-17T17:18:21.214Z,15.88
2023-02-17T17:20:48.880Z,16.40
2023-02-17T17:23:16.451Z,16.50
2023-02-17T17:25:46.873Z,15.80
2023-02-17T17:28:16.182Z,16.60
2023-02-17T17:30:43.246Z,16.05
2023-02-17T17:33:11.756Z,15.80
2023-02-17T17:35:38.901Z,16.10
2023-02-17T17:38:06.101Z,16.35
2023-02-17T17:40:48.664Z,15.98
2023-02-17T17:43:20.718Z,16.05
2023-02-17T17:45:49.137Z,15.90
2023-02-17T17:48:17.530Z,16.40
2023-02-17T17:50:45.189Z,16.08
2023-02-17T17:53:12.234Z,16.15
2023-02-17T17:55:39.371Z,15.80
2023-02-17T17:58:06.387Z,15.63
2023-02-17T18:00:33.507Z,15.70
2023-02-17T18:03:00.638Z,16.30
2023-02-17T18:05:28.469Z,16.40
2023-02-17T18:07:56.504Z,16.23
2023-02-17T18:10:23.770Z,15.50
2023-02-17T18:12:51.063Z,15.60
2023-02-17T18:15:18.841Z,16.13
2023-02-17T18:17:48.036Z,16.40
2023-02-17T18:20:15.368Z,16.48
2023-02-17T18:22:42.893Z,16.05
2023-02-17T18:25:10.337Z,15.57
2023-02-17T18:27:45.224Z,15.63
2023-02-17T18:30:15.593Z,15.90
2023-02-17T18:32:44.282Z,16.05
2023-02-17T18:35:12.386Z,16.48
2023-02-17T18:37:41.232Z,16.08
2023-02-17T18:40:12.673Z,16.05
2023-02-17T18:42:41.281Z,16.15
2023-02-17T18:45:09.554Z,16.00
2023-02-17T18:47:36.631Z,15.90
2023-02-17T18:50:05.540Z,16.45
2023-02-17T18:52:32.715Z,16.00
2023-02-17T18:54:59.785Z,15.52
2023-02-17T18:57:26.930Z,16.05
2023-02-17T18:59:53.989Z,15.90
2023-02-17T19:02:22.154Z,15.80
2023-02-17T19:04:52.368Z,15.90
2023-02-17T19:07:19.789Z,16.02
2023-02-17T19:09:46.924Z,16.08
2023-02-17T19:12:13.969Z,16.10
2023-02-17T19:14:41.941Z,15.75
2023-02-17T19:17:10.835Z,15.80
2023-02-17T19:19:41.933Z,16.38
2023-02-17T19:22:09.639Z,16.55
2023-02-17T19:24:38.253Z,16.67
2023-02-17T19:27:06.435Z,17.40
2023-02-17T19:29:33.825Z,17.60
2023-02-17T19:32:02.468Z,17.33
2023-02-17T19:34:31.295Z,16.80
2023-02-17T19:36:58.552Z,16.83
2023-02-17T19:39:25.665Z,16.63
2023-02-17T19:41:52.875Z,16.15
2023-02-17T19:44:20.287Z,16.17
2023-02-17T19:46:47.782Z,16.65
2023-02-17T19:49:14.972Z,17.17
2023-02-17T19:51:42.008Z,16.83
2023-02-17T19:54:09.129Z,16.65
2023-02-17T19:56:37.354Z,16.20
2023-02-17T19:59:04.879Z,16.80
2023-02-17T20:01:33.733Z,16.08
2023-02-17T20:04:03.581Z,16.67
2023-02-17T20:06:41.999Z,17.92
2023-02-17T20:09:14.131Z,17.48
2023-02-17T20:11:41.992Z,22.30
2023-02-17T20:14:11.064Z,24.13
2023-02-17T20:16:38.623Z,20.08
2023-02-17T20:19:06.956Z,19.67
2023-02-17T20:21:35.862Z,19.30
2023-02-17T20:24:03.014Z,20.20
2023-02-17T20:26:32.861Z,19.85
2023-02-17T20:29:00.610Z,19.98
2023-02-17T20:31:27.918Z,21.00
2023-02-17T20:33:55.400Z,21.17
2023-02-17T20:36:22.541Z,20.58
2023-02-17T20:38:52.503Z,21.65
2023-02-17T20:41:23.397Z,21.30
2023-02-17T20:43:51.399Z,20.98
2023-02-17T20:46:27.210Z,22.63
2023-02-17T20:48:55.395Z,23.05
2023-02-17T20:51:22.983Z,23.23
2023-02-17T20:53:50.064Z,23.90
2023-02-17T20:56:20.311Z,24.00
2023-02-17T20:58:47.414Z,24.23
2023-02-17T21:01:15.078Z,23.92
2023-02-17T21:03:42.235Z,24.20
2023-02-17T21:06:29.188Z,23.05
2023-02-17T21:09:05.172Z,23.42
2023-02-17T21:11:33.793Z,22.92
2023-02-17T21:14:03.284Z,22.58
2023-02-17T21:16:31.758Z,23.35
2023-02-17T21:18:59.952Z,21.67
2023-02-17T21:21:28.155Z,21.00
2023-02-17T21:23:56.110Z,25.33
2023-02-17T21:26:23.645Z,91.55
2023-02-17T21:28:51.326Z,78.57
2023-02-17T21:31:19.008Z,114.57
2023-02-17T21:33:46.272Z,58.40
2023-02-17T21:36:16.261Z,52.90
2023-02-17T21:38:43.652Z,24.02
2023-02-17T21:41:13.755Z,19.10
2023-02-17T21:44:10.344Z,17.80
2023-02-17T21:46:37.604Z,17.48
2023-02-17T21:49:04.693Z,17.42
2023-02-17T21:51:31.954Z,17.42
2023-02-17T21:53:59.452Z,17.52
2023-02-17T21:56:26.775Z,17.15
2023-02-17T21:58:55.109Z,17.17
2023-02-17T22:01:24.447Z,16.77
2023-02-17T22:03:52.355Z,17.38
2023-02-17T22:06:24.366Z,16.65
2023-02-17T22:08:51.759Z,16.98
2023-02-17T22:11:23.742Z,16.75
2023-02-17T22:13:55.150Z,17.17
2023-02-17T22:16:22.572Z,17.20
2023-02-17T22:18:49.695Z,17.50
2023-02-17T22:21:16.973Z,17.58
2023-02-17T22:23:44.314Z,17.30
2023-02-17T22:26:14.644Z,17.58
2023-02-17T22:28:42.212Z,17.23
2023-02-17T22:31:11.824Z,17.52
2023-02-17T22:33:38.838Z,16.85
2023-02-17T22:36:09.025Z,17.10
2023-02-17T22:38:36.371Z,16.98
2023-02-17T22:41:08.805Z,16.75
2023-02-17T22:43:37.127Z,16.35
2023-02-17T22:46:06.285Z,16.98
2023-02-17T22:48:35.359Z,16.33
2023-02-17T22:51:11.857Z,16.48
2023-02-17T22:53:39.297Z,16.38
2023-02-17T22:56:07.623Z,16.70
2023-02-17T22:58:36.156Z,16.77
2023-02-17T23:01:10.963Z,16.55
2023-02-17T23:03:38.478Z,17.20
2023-02-17T23:06:09.407Z,17.40
2023-02-17T23:08:36.553Z,16.85
2023-02-17T23:11:08.130Z,23.35
2023-02-17T23:13:36.075Z,18.30
2023-02-17T23:16:03.614Z,16.98
2023-02-17T23:18:32.556Z,17.27
2023-02-17T23:21:01.034Z,17.58
2023-02-17T23:23:28.105Z,17.27
2023-02-17T23:25:55.952Z,17.27
2023-02-17T23:28:25.018Z,18.48
2023-02-17T23:30:52.882Z,17.73
2023-02-17T23:33:22.496Z,17.17
2023-02-17T23:35:49.764Z,17.75
2023-02-17T23:38:19.765Z,18.30
2023-02-17T23:40:51.354Z,16.92
2023-02-17T23:43:19.492Z,19.00
2023-02-17T23:45:46.647Z,18.38
2023-02-17T23:48:14.082Z,17.85
2023-02-17T23:50:41.516Z,16.48
2023-02-17T23:53:09.040Z,16.92
2023-02-17T23:55:36.057Z,17.40
2023-02-17T23:58:03.131Z,17.73
